createdAt,value
2023-12-20T00:01:39.980Z,5.20
2023-12-20T00:04:26.497Z,5.18
2023-12-20T00:07:07.130Z,5.17
2023-12-20T00:09:57.811Z,5.15
2023-12-20T00:12:58.855Z,5.13
2023-12-20T00:15:39.429Z,5.12
2023-12-20T00:18:21.969Z,5.10
2023-12-20T00:20:57.433Z,5.06
2023-12-20T00:23:38.717Z,4.88
2023-12-20T00:26:24.031Z,4.93
2023-12-20T00:29:05.851Z,4.98
2023-12-20T00:31:42.875Z,4.93
2023-12-20T00:34:19.613Z,4.91
2023-12-20T00:37:00.152Z,4.91
2023-12-20T00:39:48.202Z,4.86
2023-12-20T00:42:31.361Z,4.84
2023-12-20T00:45:16.094Z,4.80
2023-12-20T00:47:56.928Z,4.81
2023-12-20T00:50:37.780Z,4.83
2023-12-20T00:53:12.248Z,4.78
2023-12-20T00:55:59.223Z,4.75
2023-12-20T00:58:38.687Z,4.74
2023-12-20T01:01:14.236Z,4.72
2023-12-20T01:04:06.949Z,4.72
2023-12-20T01:06:57.678Z,4.71
2023-12-20T01:09:33.575Z,4.70
2023-12-20T01:12:21.719Z,4.65
2023-12-20T01:14:55.759Z,4.68
2023-12-20T01:17:44.127Z,4.69
2023-12-20T01:20:24.102Z,4.68
2023-12-20T01:23:02.900Z,4.63
2023-12-20T01:25:40.883Z,4.60
2023-12-20T01:28:24.532Z,4.55
2023-12-20T01:31:19.755Z,4.55
2023-12-20T01:33:59.787Z,4.51
2023-12-20T01:36:35.226Z,4.48
2023-12-20T01:39:24.775Z,4.44
2023-12-20T01:42:10.511Z,4.42
2023-12-20T01:44:58.783Z,4.36
2023-12-20T01:47:37.920Z,4.33
2023-12-20T01:50:27.572Z,4.30
2023-12-20T01:53:14.592Z,4.27
2023-12-20T01:56:04.092Z,4.22
2023-12-20T01:58:43.290Z,4.16
2023-12-20T02:01:39.586Z,4.12
2023-12-20T02:04:19.342Z,4.09
2023-12-20T02:07:03.920Z,4.07
2023-12-20T02:09:39.982Z,4.04
2023-12-20T02:12:16.633Z,4.00
2023-12-20T02:14:49.535Z,3.90
2023-12-20T02:17:35.747Z,3.88
2023-12-20T02:20:13.763Z,3.80
2023-12-20T02:23:04.767Z,3.86
2023-12-20T02:25:47.131Z,3.88
2023-12-20T02:28:27.181Z,3.88
2023-12-20T02:31:05.200Z,3.88
2023-12-20T02:33:40.227Z,3.89
2023-12-20T02:36:21.443Z,3.84
2023-12-20T02:39:10.064Z,3.89
2023-12-20T02:41:53.893Z,3.88
2023-12-20T02:44:32.010Z,3.88
2023-12-20T02:49:54.934Z,3.86
2023-12-20T02:52:34.074Z,3.84
2023-12-20T02:55:20.266Z,3.85
2023-12-20T02:57:52.588Z,3.82
2023-12-20T03:00:30.214Z,3.80
2023-12-20T03:03:18.849Z,3.76
2023-12-20T03:05:55.098Z,3.67
2023-12-20T03:08:31.870Z,3.73
2023-12-20T03:11:20.302Z,3.70
2023-12-20T03:14:02.027Z,3.67
2023-12-20T03:16:38.637Z,3.60
2023-12-20T03:19:18.174Z,3.63
2023-12-20T03:21:51.246Z,3.60
2023-12-20T03:24:30.907Z,3.58
2023-12-20T03:27:11.841Z,3.56
2023-12-20T03:29:59.790Z,3.51
2023-12-20T03:32:41.751Z,3.45
2023-12-20T03:35:30.569Z,3.44
2023-12-20T03:38:11.015Z,3.38
2023-12-20T03:41:05.413Z,3.35
2023-12-20T03:43:51.636Z,3.33
2023-12-20T03:46:23.957Z,3.31
2023-12-20T03:49:03.732Z,3.27
2023-12-20T03:51:47.280Z,3.30
2023-12-20T03:54:22.360Z,3.27
2023-12-20T03:57:04.484Z,3.23
2023-12-20T03:59:48.618Z,3.21
2023-12-20T04:02:27.597Z,3.21
2023-12-20T04:05:07.065Z,3.17
2023-12-20T04:07:52.139Z,3.16
2023-12-20T04:10:36.162Z,3.11
2023-12-20T04:13:26.028Z,3.13
2023-12-20T04:16:13.433Z,3.07
2023-12-20T04:18:52.661Z,3.12
2023-12-20T04:21:41.106Z,3.10
2023-12-20T04:24:17.795Z,3.11
2023-12-20T04:26:54.234Z,3.11
2023-12-20T04:29:36.462Z,3.14
2023-12-20T04:32:19.679Z,3.15
2023-12-20T04:34:57.710Z,3.18
2023-12-20T04:37:32.847Z,3.20
2023-12-20T04:40:09.344Z,3.19
2023-12-20T04:42:50.792Z,3.20
2023-12-20T04:45:27.560Z,3.17
2023-12-20T04:48:13.208Z,3.15
2023-12-20T04:51:06.716Z,3.18
2023-12-20T04:53:42.569Z,3.17
2023-12-20T04:56:21.400Z,3.17
2023-12-20T04:58:56.811Z,3.17
2023-12-20T05:01:38.122Z,3.17
2023-12-20T05:04:23.641Z,2.87
2023-12-20T05:07:00.075Z,3.17
2023-12-20T05:09:33.260Z,3.15
2023-12-20T05:12:10.856Z,3.14
2023-12-20T05:14:41.753Z,3.13
2023-12-20T05:17:24.699Z,3.12
2023-12-20T05:20:04.035Z,3.08
2023-12-20T05:22:38.601Z,3.10
2023-12-20T05:25:28.835Z,3.07
2023-12-20T05:28:05.028Z,3.08
2023-12-20T05:30:53.526Z,3.08
2023-12-20T05:33:32.410Z,3.05
2023-12-20T05:36:18.124Z,3.04
2023-12-20T05:39:03.360Z,2.75
2023-12-20T05:41:47.766Z,2.97
2023-12-20T05:44:27.872Z,2.93
2023-12-20T05:47:12.834Z,2.90
2023-12-20T05:49:54.380Z,2.89
2023-12-20T05:52:45.473Z,2.85
2023-12-20T05:55:39.973Z,2.87
2023-12-20T05:58:20.550Z,2.79
2023-12-20T06:00:56.319Z,2.82
2023-12-20T06:03:42.286Z,2.85
2023-12-20T06:06:21.162Z,2.88
2023-12-20T06:09:05.399Z,2.89
2023-12-20T06:11:50.002Z,2.88
2023-12-20T06:14:28.331Z,2.94
2023-12-20T06:17:05.599Z,2.96
2023-12-20T06:19:45.466Z,3.01
2023-12-20T06:22:27.422Z,3.03
2023-12-20T06:25:06.276Z,3.02
2023-12-20T06:27:58.140Z,3.05
2023-12-20T06:30:38.074Z,3.01
2023-12-20T06:33:21.615Z,3.05
2023-12-20T06:35:57.230Z,3.07
2023-12-20T06:38:32.649Z,3.08
2023-12-20T06:41:25.504Z,3.05
2023-12-20T06:44:02.140Z,3.08
2023-12-20T06:46:55.591Z,3.09
2023-12-20T06:49:31.034Z,3.12
2023-12-20T06:52:18.457Z,3.11
2023-12-20T06:54:58.170Z,3.14
2023-12-20T06:57:43.261Z,3.13
2023-12-20T07:00:29.544Z,3.16
2023-12-20T07:03:10.605Z,3.17
2023-12-20T07:05:46.293Z,3.20
2023-12-20T07:08:24.133Z,3.22
2023-12-20T07:11:05.280Z,3.15
2023-12-20T07:14:02.282Z,3.17
2023-12-20T07:16:41.010Z,3.14
2023-12-20T07:19:25.594Z,3.12
2023-12-20T07:22:05.412Z,3.12
2023-12-20T07:24:43.946Z,3.05
2023-12-20T07:27:23.515Z,3.10
2023-12-20T07:30:10.886Z,3.11
2023-12-20T07:32:51.046Z,3.06
2023-12-20T07:35:30.745Z,3.05
2023-12-20T07:38:13.172Z,3.07
2023-12-20T07:40:50.738Z,2.98
2023-12-20T07:43:22.501Z,3.00
2023-12-20T07:46:06.303Z,2.97
2023-12-20T07:48:45.494Z,2.93
2023-12-20T07:51:25.078Z,2.93
2023-12-20T07:54:01.466Z,2.95
2023-12-20T07:56:32.359Z,2.90
2023-12-20T07:59:12.628Z,2.88
2023-12-20T08:01:57.976Z,2.83
2023-12-20T08:04:36.525Z,2.78
2023-12-20T08:07:19.026Z,2.77
2023-12-20T08:09:58.059Z,2.68
2023-12-20T08:12:29.173Z,2.77
2023-12-20T08:15:17.279Z,2.89
2023-12-20T08:18:03.540Z,3.00
2023-12-20T08:20:42.609Z,3.11
2023-12-20T08:23:33.263Z,3.23
2023-12-20T08:26:13.710Z,3.31
2023-12-20T08:28:49.985Z,3.16
2023-12-20T08:31:29.916Z,3.45
2023-12-20T08:34:09.312Z,3.49
2023-12-20T08:36:54.486Z,3.56
2023-12-20T08:39:29.032Z,3.52
2023-12-20T08:42:11.910Z,3.46
2023-12-20T08:45:01.654Z,3.55
2023-12-20T08:47:42.410Z,3.53
2023-12-20T08:50:35.166Z,3.57
2023-12-20T08:53:22.186Z,3.63
2023-12-20T08:56:03.605Z,3.66
2023-12-20T08:58:45.999Z,3.69
2023-12-20T09:01:22.520Z,3.76
2023-12-20T09:03:58.048Z,3.84
2023-12-20T09:06:43.067Z,3.86
2023-12-20T09:09:16.851Z,3.88
2023-12-20T09:11:50.991Z,3.94
2023-12-20T09:14:33.470Z,3.91
2023-12-20T09:17:17.438Z,3.98
2023-12-20T09:19:58.201Z,4.02
2023-12-20T09:22:47.622Z,3.98
2023-12-20T09:25:27.528Z,4.03
2023-12-20T09:28:20.581Z,4.07
2023-12-20T09:30:59.897Z,4.05
2023-12-20T09:33:41.081Z,4.09
2023-12-20T09:36:15.901Z,4.11
2023-12-20T09:38:57.234Z,4.17
2023-12-20T09:41:41.414Z,4.22
2023-12-20T09:44:26.523Z,4.24
2023-12-20T09:47:12.968Z,4.26
2023-12-20T09:50:00.117Z,4.29
2023-12-20T09:52:38.730Z,4.24
2023-12-20T09:55:25.992Z,4.36
2023-12-20T09:58:05.362Z,4.38
2023-12-20T10:00:36.211Z,4.44
2023-12-20T10:03:21.673Z,4.46
2023-12-20T10:06:06.934Z,4.50
2023-12-20T10:08:48.501Z,4.57
2023-12-20T10:11:46.299Z,4.64
2023-12-20T10:14:17.149Z,4.77
2023-12-20T10:16:51.588Z,4.85
2023-12-20T10:19:26.151Z,4.94
2023-12-20T10:22:08.763Z,5.04
2023-12-20T10:24:49.211Z,5.08
2023-12-20T10:27:31.638Z,5.14
2023-12-20T10:30:26.855Z,5.22
2023-12-20T10:33:05.146Z,5.22
2023-12-20T10:35:45.460Z,5.30
2023-12-20T10:38:23.414Z,5.41
2023-12-20T10:41:05.290Z,5.49
2023-12-20T10:43:50.434Z,5.46
2023-12-20T10:46:26.659Z,5.53
2023-12-20T10:49:04.840Z,5.60
2023-12-20T10:51:52.583Z,5.69
2023-12-20T10:54:35.228Z,5.79
2023-12-20T10:57:35.241Z,5.82
2023-12-20T11:00:20.531Z,5.85
2023-12-20T11:03:06.994Z,5.89
2023-12-20T11:05:51.056Z,5.94
2023-12-20T11:08:36.150Z,6.01
2023-12-20T11:11:23.807Z,6.04
2023-12-20T11:14:10.648Z,6.10
2023-12-20T11:16:54.921Z,6.02
2023-12-20T11:19:33.593Z,6.06
2023-12-20T11:22:22.139Z,6.14
2023-12-20T11:25:00.872Z,6.06
2023-12-20T11:27:38.960Z,6.16
2023-12-20T11:30:22.435Z,6.05
2023-12-20T11:33:07.496Z,6.10
2023-12-20T11:35:45.682Z,6.10
2023-12-20T11:38:29.649Z,6.10
2023-12-20T11:41:10.375Z,6.04
2023-12-20T11:43:54.205Z,6.07
2023-12-20T11:46:29.260Z,6.18
2023-12-20T11:49:22.642Z,6.29
2023-12-20T11:51:57.122Z,6.28
2023-12-20T11:54:37.346Z,6.50
2023-12-20T11:57:26.357Z,6.55
2023-12-20T12:00:01.953Z,6.66
2023-12-20T12:03:11.775Z,6.77
2023-12-20T12:05:54.199Z,6.78
2023-12-20T12:08:33.059Z,6.71
2023-12-20T12:11:13.501Z,6.76
2023-12-20T12:13:47.829Z,6.73
2023-12-20T12:16:37.173Z,6.71
2023-12-20T12:19:14.307Z,6.72
2023-12-20T12:22:13.870Z,6.60
2023-12-20T12:24:59.956Z,6.51
2023-12-20T12:27:34.455Z,6.37
2023-12-20T12:30:21.096Z,6.35
2023-12-20T12:33:00.957Z,6.35
2023-12-20T12:35:36.698Z,6.27
2023-12-20T12:38:28.585Z,6.27
2023-12-20T12:41:02.818Z,6.18
2023-12-20T12:43:45.679Z,6.29
2023-12-20T12:46:25.500Z,6.25
2023-12-20T12:49:02.660Z,6.16
2023-12-20T12:52:03.287Z,6.15
2023-12-20T12:54:50.161Z,6.16
2023-12-20T12:57:25.631Z,6.22
2023-12-20T12:59:59.974Z,6.25
2023-12-20T13:02:39.262Z,6.36
2023-12-20T13:05:21.202Z,6.33
2023-12-20T13:08:03.009Z,6.35
2023-12-20T13:11:05.260Z,6.41
2023-12-20T13:13:48.153Z,6.39
2023-12-20T13:16:32.119Z,6.29
2023-12-20T13:19:11.775Z,6.33
2023-12-20T13:21:45.097Z,6.28
2023-12-20T13:24:23.477Z,6.30
2023-12-20T13:27:04.420Z,6.19
2023-12-20T13:29:42.682Z,6.15
2023-12-20T13:32:17.997Z,6.04
2023-12-20T13:34:56.404Z,5.96
2023-12-20T13:37:39.063Z,6.01
2023-12-20T13:40:20.722Z,6.01
2023-12-20T13:43:09.293Z,6.08
2023-12-20T13:46:03.047Z,6.05
2023-12-20T13:48:37.342Z,6.20
2023-12-20T13:51:12.037Z,6.22
2023-12-20T13:53:46.146Z,6.27
2023-12-20T13:56:25.351Z,6.26
2023-12-20T13:59:06.763Z,6.26
2023-12-20T14:01:46.092Z,6.24
2023-12-20T14:04:41.180Z,6.23
2023-12-20T14:07:26.138Z,6.24
2023-12-20T14:10:06.029Z,6.20
2023-12-20T14:12:45.046Z,6.17
2023-12-20T14:15:18.101Z,6.13
2023-12-20T14:17:48.926Z,6.11
2023-12-20T14:20:19.414Z,6.05
2023-12-20T14:22:49.824Z,5.92
2023-12-20T14:25:20.568Z,5.97
2023-12-20T14:27:51.261Z,5.94
2023-12-20T14:30:25.086Z,5.86
2023-12-20T14:32:55.690Z,5.73
2023-12-20T14:35:27.861Z,5.69
2023-12-20T14:37:58.756Z,5.63
2023-12-20T14:40:29.359Z,5.53
2023-12-20T14:42:59.868Z,5.54
2023-12-20T14:45:34.949Z,5.38
2023-12-20T14:48:06.599Z,5.50
2023-12-20T14:50:38.376Z,5.61
2023-12-20T14:53:08.871Z,5.62
2023-12-20T14:55:40.900Z,5.61
2023-12-20T14:58:11.854Z,5.62
2023-12-20T15:00:45.369Z,5.56
2023-12-20T15:03:17.929Z,5.47
2023-12-20T15:05:49.454Z,5.53
2023-12-20T15:08:20.133Z,5.37
2023-12-20T15:10:50.660Z,5.48
2023-12-20T15:13:21.386Z,5.54
2023-12-20T15:15:54.888Z,5.47
2023-12-20T15:18:25.781Z,5.09
2023-12-20T15:20:56.745Z,5.07
2023-12-20T15:23:27.713Z,5.08
2023-12-20T15:25:58.090Z,4.96
2023-12-20T15:28:28.507Z,4.63
2023-12-20T15:31:01.837Z,4.53
2023-12-20T15:33:32.607Z,4.44
2023-12-20T15:36:03.166Z,4.31
2023-12-20T15:38:33.585Z,4.37
2023-12-20T15:41:04.596Z,4.38
2023-12-20T15:43:35.208Z,4.41
2023-12-20T15:46:18.316Z,4.42
2023-12-20T15:48:48.869Z,4.52
2023-12-20T15:51:19.460Z,4.52
2023-12-20T15:53:50.040Z,4.46
2023-12-20T15:56:20.895Z,4.56
2023-12-20T15:58:56.130Z,4.57
2023-12-20T16:01:29.187Z,4.54
2023-12-20T16:04:00.359Z,4.55
2023-12-20T16:06:31.600Z,4.57
2023-12-20T16:09:02.136Z,4.51
2023-12-20T16:11:33.246Z,4.44
2023-12-20T16:14:03.655Z,4.54
2023-12-20T16:16:36.946Z,4.51
2023-12-20T16:19:07.413Z,4.43
2023-12-20T16:21:37.871Z,4.42
2023-12-20T16:24:09.798Z,4.53
2023-12-20T16:26:40.460Z,4.52
2023-12-20T16:29:11.597Z,4.57
2023-12-20T16:31:44.771Z,4.63
2023-12-20T16:34:15.369Z,4.63
2023-12-20T16:37:01.229Z,4.65
2023-12-20T16:39:32.763Z,4.69
2023-12-20T16:42:03.410Z,4.69
2023-12-20T16:44:34.373Z,4.69
2023-12-20T16:47:07.185Z,4.65
2023-12-20T16:49:37.749Z,4.54
2023-12-20T16:52:09.047Z,4.49
2023-12-20T16:54:39.557Z,4.55
2023-12-20T16:57:10.256Z,4.52
2023-12-20T16:59:40.631Z,4.52
2023-12-20T17:02:13.956Z,4.62
2023-12-20T17:04:44.627Z,4.68
2023-12-20T17:07:15.140Z,4.69
2023-12-20T17:09:46.214Z,4.77
2023-12-20T17:12:21.079Z,4.78
2023-12-20T17:14:51.682Z,4.77
2023-12-20T17:17:24.735Z,4.71
2023-12-20T17:19:55.199Z,4.75
2023-12-20T17:22:26.032Z,4.65
2023-12-20T17:24:56.563Z,4.64
2023-12-20T17:27:27.402Z,4.45
2023-12-20T17:29:57.833Z,4.33
2023-12-20T17:32:30.895Z,4.24
2023-12-20T17:35:01.533Z,4.16
2023-12-20T17:37:32.043Z,4.14
2023-12-20T17:40:05.639Z,4.05
2023-12-20T17:42:36.059Z,4.02
2023-12-20T17:45:07.113Z,3.98
2023-12-20T17:47:40.426Z,3.99
2023-12-20T17:50:13.751Z,4.01
2023-12-20T17:52:44.481Z,3.99
2023-12-20T17:55:15.227Z,4.00
2023-12-20T17:57:46.368Z,3.91
2023-12-20T18:00:23.205Z,3.88
2023-12-20T18:02:56.681Z,3.75
2023-12-20T18:05:27.309Z,3.69
2023-12-20T18:07:57.914Z,3.70
2023-12-20T18:10:29.499Z,3.65
2023-12-20T18:13:00.967Z,3.55
2023-12-20T18:15:31.410Z,3.51
2023-12-20T18:18:04.739Z,3.57
2023-12-20T18:20:35.388Z,3.58
2023-12-20T18:23:11.084Z,3.55
2023-12-20T18:25:42.833Z,3.64
2023-12-20T18:28:13.260Z,3.66
2023-12-20T18:30:43.767Z,3.59
2023-12-20T18:33:17.054Z,3.64
2023-12-20T18:35:57.342Z,3.65
2023-12-20T18:38:31.646Z,3.67
2023-12-20T18:41:02.033Z,3.56
2023-12-20T18:43:32.570Z,3.50
2023-12-20T18:46:04.073Z,3.46
2023-12-20T18:48:37.720Z,3.43
2023-12-20T18:51:08.923Z,3.37
2023-12-20T18:53:39.593Z,3.24
2023-12-20T18:56:10.873Z,3.15
2023-12-20T18:58:41.525Z,3.21
2023-12-20T19:01:12.631Z,3.23
2023-12-20T19:03:46.467Z,3.26
2023-12-20T19:06:17.333Z,3.18
2023-12-20T19:08:51.613Z,3.26
2023-12-20T19:11:22.768Z,3.30
2023-12-20T19:13:53.461Z,3.39
2023-12-20T19:16:24.750Z,3.42
2023-12-20T19:18:58.197Z,3.46
2023-12-20T19:21:28.835Z,3.46
2023-12-20T19:24:04.058Z,3.44
2023-12-20T19:26:34.527Z,3.46
2023-12-20T19:29:05.241Z,3.46
2023-12-20T19:31:37.123Z,3.51
2023-12-20T19:34:10.485Z,3.44
2023-12-20T19:36:41.160Z,3.62
2023-12-20T19:39:11.579Z,3.65
2023-12-20T19:41:42.024Z,3.63
2023-12-20T19:44:12.480Z,3.53
2023-12-20T19:46:43.609Z,3.59
2023-12-20T19:49:16.920Z,3.58
2023-12-20T19:51:47.621Z,3.51
2023-12-20T19:54:18.809Z,3.65
2023-12-20T19:56:48.961Z,3.65
2023-12-20T19:59:20.022Z,3.61
2023-12-20T20:01:50.793Z,3.69
2023-12-20T20:04:28.158Z,3.74
2023-12-20T20:06:59.160Z,3.71
2023-12-20T20:09:29.586Z,3.75
2023-12-20T20:12:01.700Z,3.76
2023-12-20T20:14:32.149Z,3.76
2023-12-20T20:17:03.457Z,3.76
2023-12-20T20:19:36.604Z,3.68
2023-12-20T20:22:07.538Z,3.81
2023-12-20T20:24:37.621Z,3.83
2023-12-20T20:27:08.602Z,3.85
2023-12-20T20:29:39.283Z,3.88
2023-12-20T20:32:12.719Z,3.88
2023-12-20T20:34:46.137Z,3.89
2023-12-20T20:37:16.693Z,3.93
2023-12-20T20:39:49.797Z,3.91
2023-12-20T20:42:21.507Z,3.92
2023-12-20T20:44:52.123Z,3.91
2023-12-20T20:47:22.631Z,3.88
2023-12-20T20:49:58.192Z,3.84
2023-12-20T20:52:29.264Z,3.86
2023-12-20T20:55:00.429Z,3.85
2023-12-20T20:57:31.011Z,3.91
2023-12-20T21:00:01.473Z,3.91
2023-12-20T21:02:32.133Z,3.95
2023-12-20T21:05:08.006Z,3.98
2023-12-20T21:07:38.755Z,3.99
2023-12-20T21:10:10.839Z,4.00
2023-12-20T21:12:41.252Z,3.99
2023-12-20T21:15:15.477Z,3.99
2023-12-20T21:17:46.319Z,4.00
2023-12-20T21:20:20.064Z,3.99
2023-12-20T21:22:50.587Z,3.99
2023-12-20T21:25:22.932Z,4.00
2023-12-20T21:27:53.666Z,4.02
2023-12-20T21:30:24.226Z,4.01
2023-12-20T21:32:54.745Z,3.99
2023-12-20T21:35:27.798Z,3.99
2023-12-20T21:37:58.388Z,3.99
2023-12-20T21:40:28.969Z,4.03
2023-12-20T21:42:59.749Z,4.03
2023-12-20T21:45:30.242Z,4.05
2023-12-20T21:48:00.688Z,4.07
2023-12-20T21:50:34.796Z,4.07
2023-12-20T21:53:12.576Z,4.08
2023-12-20T21:55:44.194Z,4.04
2023-12-20T21:58:14.694Z,4.04
2023-12-20T22:00:45.177Z,4.04
2023-12-20T22:03:15.714Z,4.00
2023-12-20T22:05:50.119Z,3.97
2023-12-20T22:08:20.671Z,3.98
2023-12-20T22:10:51.110Z,3.97
2023-12-20T22:13:21.676Z,3.85
2023-12-20T22:15:52.600Z,4.01
2023-12-20T22:18:23.050Z,3.99
2023-12-20T22:20:57.338Z,3.92
2023-12-20T22:23:38.582Z,3.91
2023-12-20T22:26:09.593Z,3.92
2023-12-20T22:28:40.340Z,3.91
2023-12-20T22:31:10.887Z,3.94
2023-12-20T22:33:41.355Z,3.99
2023-12-20T22:36:14.693Z,4.02
2023-12-20T22:38:45.084Z,4.07
2023-12-20T22:41:16.102Z,4.11
2023-12-20T22:43:46.108Z,4.11
2023-12-20T22:46:18.263Z,4.03
2023-12-20T22:48:49.190Z,4.19
2023-12-20T22:51:22.606Z,4.21
2023-12-20T22:53:57.207Z,4.24
2023-12-20T22:56:28.212Z,4.27
2023-12-20T22:58:58.382Z,4.28
2023-12-20T23:01:29.295Z,4.27
2023-12-20T23:03:59.599Z,4.27
2023-12-20T23:06:32.809Z,4.28
2023-12-20T23:09:04.300Z,4.29
2023-12-20T23:11:34.768Z,4.31
2023-12-20T23:14:10.466Z,4.32
2023-12-20T23:16:47.684Z,4.33
2023-12-20T23:19:18.354Z,4.27
2023-12-20T23:21:51.786Z,4.33
2023-12-20T23:24:22.867Z,4.36
2023-12-20T23:26:54.410Z,4.36
2023-12-20T23:29:24.868Z,4.39
2023-12-20T23:31:55.313Z,4.42
2023-12-20T23:34:25.801Z,4.41
2023-12-20T23:36:58.880Z,4.42
2023-12-20T23:39:29.320Z,4.43
2023-12-20T23:41:59.906Z,4.44
2023-12-20T23:44:30.329Z,4.42
2023-12-20T23:47:00.723Z,4.37
2023-12-20T23:49:32.147Z,4.39
2023-12-20T23:52:05.525Z,4.36
2023-12-20T23:54:35.997Z,4.35
2023-12-20T23:57:06.605Z,4.36
2023-12-20T23:59:36.963Z,4.35
